createdAt,value
2018-11-25T00:00:20.474Z,7.38
2018-11-25T00:01:24.567Z,7.39
2018-11-25T00:02:28.643Z,7.37
2018-11-25T00:03:32.601Z,7.36
2018-11-25T00:04:36.567Z,7.37
2018-11-25T00:05:40.553Z,7.37
2018-11-25T00:06:44.567Z,7.38
2018-11-25T00:07:48.573Z,7.37
2018-11-25T00:08:52.905Z,7.36
2018-11-25T00:09:56.918Z,7.35
2018-11-25T00:11:00.981Z,7.33
2018-11-25T00:12:05.019Z,7.34
2018-11-25T00:13:09.041Z,7.35
2018-11-25T00:14:13.094Z,7.37
2018-11-25T00:15:17.126Z,7.41
2018-11-25T00:16:21.193Z,7.43
2018-11-25T00:17:25.439Z,7.45
2018-11-25T00:18:29.506Z,7.45
2018-11-25T00:19:33.422Z,7.48
2018-11-25T00:20:37.473Z,7.48
2018-11-25T00:21:41.490Z,7.50
2018-11-25T00:22:45.420Z,7.52
2018-11-25T00:23:49.390Z,7.53
2018-11-25T00:24:53.383Z,7.56
2018-11-25T00:25:57.402Z,7.60
2018-11-25T00:27:01.597Z,7.60
2018-11-25T00:28:08.820Z,7.64
2018-11-25T00:29:12.865Z,7.63
2018-11-25T00:30:16.869Z,7.63
2018-11-25T00:31:20.896Z,7.64
2018-11-25T00:32:24.942Z,7.63
2018-11-25T00:33:28.930Z,7.61
2018-11-25T00:34:32.910Z,7.60
2018-11-25T00:35:36.970Z,7.59
2018-11-25T00:36:41.000Z,7.58
2018-11-25T00:37:48.468Z,7.58
2018-11-25T00:38:49.520Z,7.57
2018-11-25T00:39:53.557Z,7.56
2018-11-25T00:40:57.653Z,7.57
2018-11-25T00:42:01.716Z,7.57
2018-11-25T00:43:06.047Z,7.55
2018-11-25T00:44:11.038Z,7.55
2018-11-25T00:45:16.285Z,7.53
2018-11-25T00:46:20.298Z,7.54
2018-11-25T00:47:24.303Z,7.52
2018-11-25T00:48:28.323Z,7.52
2018-11-25T00:49:32.312Z,7.51
2018-11-25T00:50:36.502Z,7.50
2018-11-25T00:51:41.910Z,7.47
2018-11-25T00:52:45.922Z,7.45
2018-11-25T00:53:50.025Z,7.42
2018-11-25T00:54:54.051Z,7.39
2018-11-25T00:55:58.092Z,7.40
2018-11-25T00:57:02.105Z,7.38
2018-11-25T00:58:06.517Z,7.38
2018-11-25T00:59:10.510Z,7.37
2018-11-25T01:00:17.405Z,7.40
2018-11-25T01:01:21.462Z,7.43
2018-11-25T01:02:25.474Z,7.45
2018-11-25T01:03:29.540Z,7.46
2018-11-25T01:04:33.643Z,7.45
2018-11-25T01:06:48.013Z,7.40
2018-11-25T01:07:52.069Z,7.39
2018-11-25T01:08:56.144Z,7.36
2018-11-25T01:10:01.606Z,7.36
2018-11-25T01:11:06.109Z,7.34
2018-11-25T01:12:10.210Z,7.32
2018-11-25T01:13:14.295Z,7.31
2018-11-25T01:14:18.408Z,7.30
2018-11-25T01:15:22.392Z,7.29
2018-11-25T01:16:26.733Z,7.28
2018-11-25T01:17:30.770Z,7.26
2018-11-25T01:18:34.797Z,7.24
2018-11-25T01:19:38.799Z,7.22
2018-11-25T01:20:42.814Z,7.21
2018-11-25T01:21:46.908Z,7.19
2018-11-25T01:22:50.954Z,7.19
2018-11-25T01:23:55.016Z,7.18
2018-11-25T01:24:59.020Z,7.17
2018-11-25T01:26:03.769Z,7.15
2018-11-25T01:27:07.801Z,7.15
2018-11-25T01:28:12.450Z,7.13
2018-11-25T01:29:16.501Z,7.12
2018-11-25T01:30:20.649Z,7.12
2018-11-25T01:31:24.741Z,7.12
2018-11-25T01:32:28.833Z,7.13
2018-11-25T01:33:32.878Z,7.15
2018-11-25T01:34:36.969Z,7.16
2018-11-25T01:35:40.950Z,7.17
2018-11-25T01:36:46.012Z,7.17
2018-11-25T01:37:50.046Z,7.18
2018-11-25T01:38:54.089Z,7.18
2018-11-25T01:39:58.121Z,7.18
2018-11-25T01:41:02.173Z,7.18
2018-11-25T01:42:06.154Z,7.18
2018-11-25T01:43:10.186Z,7.17
2018-11-25T01:44:14.249Z,7.17
2018-11-25T01:45:18.497Z,7.20
2018-11-25T01:46:22.599Z,7.23
2018-11-25T01:47:26.624Z,7.24
2018-11-25T01:48:30.634Z,7.25
2018-11-25T01:49:34.743Z,7.27
2018-11-25T01:50:39.110Z,7.28
2018-11-25T01:51:43.112Z,7.28
2018-11-25T01:52:47.562Z,7.28
2018-11-25T01:53:51.667Z,7.29
2018-11-25T01:54:55.862Z,7.27
2018-11-25T01:55:59.941Z,7.26
2018-11-25T01:57:03.982Z,7.27
2018-11-25T01:58:07.999Z,7.28
2018-11-25T01:59:12.114Z,7.28
2018-11-25T02:00:21.240Z,7.29
2018-11-25T02:01:25.247Z,7.27
2018-11-25T02:02:29.354Z,7.25
2018-11-25T02:03:33.412Z,7.24
2018-11-25T02:04:37.466Z,7.22
2018-11-25T02:05:41.497Z,7.20
2018-11-25T02:06:45.546Z,7.18
2018-11-25T02:07:49.618Z,7.17
2018-11-25T02:08:53.696Z,7.16
2018-11-25T02:09:57.751Z,7.18
2018-11-25T02:11:01.869Z,7.17
2018-11-25T02:12:06.158Z,7.17
2018-11-25T02:13:12.539Z,7.17
2018-11-25T02:14:16.613Z,7.18
2018-11-25T02:15:20.638Z,7.19
2018-11-25T02:16:24.665Z,7.20
2018-11-25T02:17:28.769Z,7.23
2018-11-25T02:18:32.787Z,7.24
2018-11-25T02:19:36.830Z,7.27
2018-11-25T02:20:40.907Z,7.29
2018-11-25T02:21:44.981Z,7.30
2018-11-25T02:22:49.336Z,7.28
2018-11-25T02:23:53.346Z,7.25
2018-11-25T02:24:57.475Z,7.24
2018-11-25T02:26:01.553Z,7.23
2018-11-25T02:27:05.882Z,7.21
2018-11-25T02:28:09.983Z,7.18
2018-11-25T02:29:14.109Z,7.16
2018-11-25T02:30:18.292Z,7.14
2018-11-25T02:31:22.303Z,7.12
2018-11-25T02:32:26.311Z,7.10
2018-11-25T02:33:30.405Z,7.09
2018-11-25T02:34:34.451Z,7.07
2018-11-25T02:35:38.481Z,7.06
2018-11-25T02:36:42.488Z,7.03
2018-11-25T02:37:46.505Z,7.03
2018-11-25T02:38:50.591Z,7.02
2018-11-25T02:39:54.643Z,7.01
2018-11-25T02:40:58.650Z,7.01
2018-11-25T02:42:02.712Z,7.00
2018-11-25T02:43:06.802Z,7.02
2018-11-25T02:44:10.793Z,7.03
2018-11-25T02:45:15.688Z,7.05
2018-11-25T02:46:19.770Z,7.08
2018-11-25T02:47:23.968Z,7.07
2018-11-25T02:48:27.964Z,7.09
2018-11-25T02:49:31.982Z,7.11
2018-11-25T02:50:36.120Z,7.11
2018-11-25T02:51:40.317Z,7.08
2018-11-25T02:52:44.326Z,7.09
2018-11-25T02:53:48.369Z,7.07
2018-11-25T02:54:52.423Z,7.09
2018-11-25T02:55:59.505Z,7.09
2018-11-25T02:57:03.608Z,7.09
2018-11-25T02:58:07.683Z,7.07
2018-11-25T02:59:11.725Z,7.06
2018-11-25T03:00:15.793Z,7.05
2018-11-25T03:01:19.815Z,7.04
2018-11-25T03:02:23.869Z,7.03
2018-11-25T03:03:27.891Z,7.04
2018-11-25T03:04:31.953Z,7.05
2018-11-25T03:05:35.946Z,7.05
2018-11-25T03:06:40.181Z,7.07
2018-11-25T03:07:44.465Z,7.10
2018-11-25T03:08:48.532Z,7.13
2018-11-25T03:09:52.693Z,7.15
2018-11-25T03:10:56.685Z,7.15
2018-11-25T03:12:00.716Z,7.14
2018-11-25T03:13:04.767Z,7.12
2018-11-25T03:14:08.816Z,7.11
2018-11-25T03:15:14.408Z,7.10
2018-11-25T03:16:21.201Z,7.09
2018-11-25T03:17:25.259Z,7.08
2018-11-25T03:18:29.314Z,7.08
2018-11-25T03:19:33.430Z,7.12
2018-11-25T03:20:37.526Z,7.15
2018-11-25T03:21:41.448Z,7.18
2018-11-25T03:22:45.477Z,7.20
2018-11-25T03:23:49.500Z,7.20
2018-11-25T03:24:53.639Z,7.21
2018-11-25T03:25:57.657Z,7.19
2018-11-25T03:27:01.693Z,7.18
2018-11-25T03:28:06.266Z,7.19
2018-11-25T03:29:10.278Z,7.20
2018-11-25T03:30:16.132Z,7.21
2018-11-25T03:31:20.152Z,7.20
2018-11-25T03:32:24.287Z,7.18
2018-11-25T03:33:28.305Z,7.19
2018-11-25T03:34:32.465Z,7.20
2018-11-25T03:35:36.473Z,7.20
2018-11-25T03:36:40.522Z,7.22
2018-11-25T03:37:44.573Z,7.23
2018-11-25T03:38:48.644Z,7.24
2018-11-25T03:39:52.767Z,7.25
2018-11-25T03:40:56.749Z,7.25
2018-11-25T03:42:00.755Z,7.27
2018-11-25T03:43:04.890Z,7.26
2018-11-25T03:44:09.011Z,7.29
2018-11-25T03:45:14.083Z,7.27
2018-11-25T03:46:18.157Z,7.28
2018-11-25T03:47:22.167Z,7.28
2018-11-25T03:48:26.192Z,7.29
2018-11-25T03:49:30.182Z,7.30
2018-11-25T03:50:34.255Z,7.32
2018-11-25T03:51:38.311Z,7.36
2018-11-25T03:52:42.599Z,7.39
2018-11-25T03:53:46.689Z,7.42
2018-11-25T03:54:50.646Z,7.43
2018-11-25T03:55:54.690Z,7.44
2018-11-25T03:56:58.679Z,7.47
2018-11-25T03:58:02.697Z,7.46
2018-11-25T03:59:06.708Z,7.44
2018-11-25T04:00:13.923Z,7.41
2018-11-25T04:01:17.944Z,7.39
2018-11-25T04:02:21.993Z,7.38
2018-11-25T04:03:26.075Z,7.38
2018-11-25T04:04:30.105Z,7.39
2018-11-25T04:05:34.081Z,7.39
2018-11-25T04:06:39.241Z,7.39
2018-11-25T04:07:43.369Z,7.41
2018-11-25T04:08:47.406Z,7.42
2018-11-25T04:09:51.398Z,7.43
2018-11-25T04:10:55.389Z,7.44
2018-11-25T04:11:59.505Z,7.43
2018-11-25T04:13:03.495Z,7.43
2018-11-25T04:14:07.624Z,7.43
2018-11-25T04:15:13.501Z,7.44
2018-11-25T04:16:17.458Z,7.44
2018-11-25T04:17:21.510Z,7.44
2018-11-25T04:18:25.558Z,7.42
2018-11-25T04:19:32.806Z,7.43
2018-11-25T04:20:36.806Z,7.42
2018-11-25T04:21:40.794Z,7.44
2018-11-25T04:22:44.927Z,7.43
2018-11-25T04:23:48.876Z,7.42
2018-11-25T04:24:52.877Z,7.42
2018-11-25T04:25:56.930Z,7.42
2018-11-25T04:27:00.925Z,7.43
2018-11-25T04:28:05.103Z,7.44
2018-11-25T04:29:09.149Z,7.45
2018-11-25T04:30:15.954Z,7.46
2018-11-25T04:31:19.970Z,7.47
2018-11-25T04:32:23.956Z,7.47
2018-11-25T04:33:27.955Z,7.47
2018-11-25T04:34:31.928Z,7.48
2018-11-25T04:35:36.013Z,7.50
2018-11-25T04:36:43.297Z,7.50
2018-11-25T04:37:47.302Z,7.51
2018-11-25T04:38:51.408Z,7.50
2018-11-25T04:39:55.458Z,7.53
2018-11-25T04:40:59.443Z,7.52
2018-11-25T04:42:03.517Z,7.53
2018-11-25T04:43:07.509Z,7.54
2018-11-25T04:44:11.518Z,7.52
2018-11-25T04:45:16.261Z,7.49
2018-11-25T04:46:20.261Z,7.47
2018-11-25T04:47:24.321Z,7.44
2018-11-25T04:48:28.312Z,7.42
2018-11-25T04:49:32.320Z,7.42
2018-11-25T04:50:36.349Z,7.43
2018-11-25T04:51:40.414Z,7.46
2018-11-25T04:52:44.610Z,7.48
2018-11-25T04:53:48.597Z,7.48
2018-11-25T04:54:52.638Z,7.49
2018-11-25T04:55:56.707Z,7.49
2018-11-25T04:57:00.685Z,7.49
2018-11-25T04:58:05.180Z,7.48
2018-11-25T04:59:09.279Z,7.49
2018-11-25T05:00:19.879Z,7.51
2018-11-25T05:01:23.888Z,7.52
2018-11-25T05:02:28.010Z,7.52
2018-11-25T05:03:32.001Z,7.52
2018-11-25T05:04:36.014Z,7.52
2018-11-25T05:05:40.029Z,7.52
2018-11-25T05:06:44.046Z,7.53
2018-11-25T05:07:48.068Z,7.54
2018-11-25T05:08:52.096Z,7.55
2018-11-25T05:09:56.198Z,7.54
2018-11-25T05:11:00.331Z,7.52
2018-11-25T05:12:04.372Z,7.51
2018-11-25T05:13:08.441Z,7.50
2018-11-25T05:14:13.263Z,7.51
2018-11-25T05:15:18.245Z,7.52
2018-11-25T05:16:22.241Z,7.53
2018-11-25T05:17:26.254Z,7.54
2018-11-25T05:18:30.274Z,7.55
2018-11-25T05:19:34.266Z,7.55
2018-11-25T05:20:38.319Z,7.55
2018-11-25T05:21:42.292Z,7.54
2018-11-25T05:22:46.290Z,7.55
2018-11-25T05:23:50.329Z,7.55
2018-11-25T05:24:54.328Z,7.56
2018-11-25T05:25:58.309Z,7.57
2018-11-25T05:27:02.298Z,7.59
2018-11-25T05:28:06.272Z,7.60
2018-11-25T05:29:10.305Z,7.62
2018-11-25T05:30:16.195Z,7.64
2018-11-25T05:31:20.225Z,7.67
2018-11-25T05:32:24.241Z,7.68
2018-11-25T05:33:28.257Z,7.67
2018-11-25T05:34:32.359Z,7.67
2018-11-25T05:35:36.282Z,7.65
2018-11-25T05:36:40.469Z,7.64
2018-11-25T05:37:44.464Z,7.64
2018-11-25T05:38:48.545Z,7.67
2018-11-25T05:39:52.601Z,7.65
2018-11-25T05:40:56.646Z,7.65
2018-11-25T05:42:00.620Z,7.67
2018-11-25T05:43:04.646Z,7.67
2018-11-25T05:44:08.704Z,7.67
2018-11-25T05:45:17.608Z,7.68
2018-11-25T05:46:21.668Z,7.68
2018-11-25T05:47:25.725Z,7.69
2018-11-25T05:48:29.715Z,7.71
2018-11-25T05:49:36.792Z,7.73
2018-11-25T05:50:37.726Z,7.73
2018-11-25T05:51:41.728Z,7.73
2018-11-25T05:52:45.927Z,7.72
2018-11-25T05:53:50.065Z,7.72
2018-11-25T05:54:54.238Z,7.71
2018-11-25T05:55:58.388Z,7.71
2018-11-25T05:57:02.401Z,7.70
2018-11-25T05:58:06.628Z,7.70
2018-11-25T05:59:10.743Z,7.69
2018-11-25T06:00:16.645Z,7.70
2018-11-25T06:01:20.708Z,7.69
2018-11-25T06:02:24.806Z,7.69
2018-11-25T06:03:28.830Z,7.67
2018-11-25T06:04:33.144Z,7.65
2018-11-25T06:05:37.143Z,7.63
2018-11-25T06:06:41.213Z,7.63
2018-11-25T06:07:45.322Z,7.64
2018-11-25T06:08:49.463Z,7.64
2018-11-25T06:09:53.522Z,7.66
2018-11-25T06:10:57.562Z,7.68
2018-11-25T06:12:01.581Z,7.70
2018-11-25T06:13:05.855Z,7.71
2018-11-25T06:14:09.881Z,7.71
2018-11-25T06:15:14.887Z,7.72
2018-11-25T06:16:18.894Z,7.74
2018-11-25T06:17:22.912Z,7.75
2018-11-25T06:18:26.974Z,7.74
2018-11-25T06:19:30.993Z,7.73
2018-11-25T06:20:35.032Z,7.72
2018-11-25T06:21:39.110Z,7.71
2018-11-25T06:22:43.171Z,7.71
2018-11-25T06:23:47.234Z,7.72
2018-11-25T06:24:51.312Z,7.73
2018-11-25T06:25:55.345Z,7.74
2018-11-25T06:26:59.529Z,7.73
2018-11-25T06:28:03.593Z,7.73
2018-11-25T06:29:07.782Z,7.72
2018-11-25T06:30:16.984Z,7.71
2018-11-25T06:31:21.027Z,7.71
2018-11-25T06:32:28.410Z,7.72
2018-11-25T06:33:32.457Z,7.71
2018-11-25T06:34:36.581Z,7.71
2018-11-25T06:35:40.569Z,7.72
2018-11-25T06:36:44.769Z,7.72
2018-11-25T06:37:48.800Z,7.72
2018-11-25T06:38:53.003Z,7.72
2018-11-25T06:39:57.026Z,7.72
2018-11-25T06:41:01.102Z,7.72
2018-11-25T06:42:09.528Z,7.73
2018-11-25T06:43:13.647Z,7.73
2018-11-25T06:44:17.719Z,7.71
2018-11-25T06:45:28.210Z,7.71
2018-11-25T06:46:32.325Z,7.70
2018-11-25T06:47:36.401Z,7.70
2018-11-25T06:48:40.494Z,7.72
2018-11-25T06:49:44.534Z,7.73
2018-11-25T06:50:48.586Z,7.73
2018-11-25T06:51:52.582Z,7.73
2018-11-25T06:52:57.004Z,7.74
2018-11-25T06:54:01.112Z,7.74
2018-11-25T06:55:05.664Z,7.73
2018-11-25T06:56:09.744Z,7.74
2018-11-25T06:57:14.107Z,7.76
2018-11-25T06:58:18.138Z,7.77
2018-11-25T06:59:22.340Z,7.79
2018-11-25T07:00:26.490Z,7.79
2018-11-25T07:01:30.524Z,7.79
2018-11-25T07:02:34.701Z,7.78
2018-11-25T07:03:38.755Z,7.78
2018-11-25T07:04:42.752Z,7.76
2018-11-25T07:05:46.792Z,7.76
2018-11-25T07:06:50.835Z,7.76
2018-11-25T07:07:54.895Z,7.77
2018-11-25T07:08:58.885Z,7.78
2018-11-25T07:10:03.054Z,7.79
2018-11-25T07:11:07.110Z,7.80
2018-11-25T07:12:11.235Z,7.80
2018-11-25T07:13:15.417Z,7.80
2018-11-25T07:14:19.454Z,7.76
2018-11-25T07:15:23.489Z,7.73
2018-11-25T07:16:27.573Z,7.71
2018-11-25T07:17:31.579Z,7.69
2018-11-25T07:18:35.695Z,7.70
2018-11-25T07:19:39.676Z,7.69
2018-11-25T07:20:43.699Z,7.69
2018-11-25T07:21:47.739Z,7.69
2018-11-25T07:22:51.882Z,7.72
2018-11-25T07:23:56.053Z,7.72
2018-11-25T07:25:00.107Z,7.73
2018-11-25T07:26:04.271Z,7.75
2018-11-25T07:27:08.329Z,7.76
2018-11-25T07:28:18.424Z,7.76
2018-11-25T07:29:16.362Z,7.76
2018-11-25T07:30:24.579Z,7.76
2018-11-25T07:31:28.798Z,7.77
2018-11-25T07:32:32.903Z,7.78
2018-11-25T07:33:37.009Z,7.74
2018-11-25T07:34:41.280Z,7.71
2018-11-25T07:35:45.315Z,7.71
2018-11-25T07:36:49.354Z,7.70
2018-11-25T07:37:53.351Z,7.69
2018-11-25T07:38:57.711Z,7.71
2018-11-25T07:40:01.726Z,7.69
2018-11-25T07:41:05.814Z,7.71
2018-11-25T07:42:09.893Z,7.71
2018-11-25T07:43:13.934Z,7.72
2018-11-25T07:44:17.983Z,7.73
2018-11-25T07:45:30.267Z,7.74
2018-11-25T07:46:28.092Z,7.74
2018-11-25T07:47:32.107Z,7.78
2018-11-25T07:48:36.150Z,7.77
2018-11-25T07:49:40.155Z,7.77
2018-11-25T07:50:44.210Z,7.77
2018-11-25T07:51:48.286Z,7.79
2018-11-25T07:52:52.621Z,7.78
2018-11-25T07:53:56.969Z,7.78
2018-11-25T07:55:01.049Z,7.78
2018-11-25T07:56:05.102Z,7.79
2018-11-25T07:57:09.175Z,7.80
2018-11-25T07:58:13.161Z,7.80
2018-11-25T07:59:17.186Z,7.79
2018-11-25T08:00:23.052Z,7.81
2018-11-25T08:01:27.110Z,7.81
2018-11-25T08:02:31.245Z,7.80
2018-11-25T08:03:35.260Z,7.81
2018-11-25T08:04:39.230Z,7.81
2018-11-25T08:05:43.257Z,7.81
2018-11-25T08:06:47.296Z,7.82
2018-11-25T08:07:51.318Z,7.79
2018-11-25T08:08:55.369Z,7.80
2018-11-25T08:09:59.466Z,7.80
2018-11-25T08:11:03.828Z,7.80
2018-11-25T08:12:07.896Z,7.82
2018-11-25T08:13:12.022Z,7.80
2018-11-25T08:14:15.992Z,7.83
2018-11-25T08:15:20.375Z,7.85
2018-11-25T08:16:24.373Z,7.85
2018-11-25T08:17:28.395Z,7.85
2018-11-25T08:18:32.474Z,7.83
2018-11-25T08:19:36.505Z,7.85
2018-11-25T08:20:40.509Z,7.84
2018-11-25T08:21:44.548Z,7.85
2018-11-25T08:22:48.655Z,7.85
2018-11-25T08:23:52.730Z,7.85
2018-11-25T08:24:56.722Z,7.83
2018-11-25T08:26:00.840Z,7.85
2018-11-25T08:27:04.850Z,7.87
2018-11-25T08:28:08.809Z,7.88
2018-11-25T08:29:12.821Z,7.90
2018-11-25T08:30:17.773Z,7.92
2018-11-25T08:31:21.798Z,7.92
2018-11-25T08:32:25.957Z,7.92
2018-11-25T08:33:30.028Z,7.94
2018-11-25T08:34:34.121Z,7.95
2018-11-25T08:35:38.156Z,7.94
2018-11-25T08:36:42.164Z,7.93
2018-11-25T08:37:52.878Z,7.94
2018-11-25T08:38:57.001Z,7.94
2018-11-25T08:40:01.033Z,7.95
2018-11-25T08:41:05.062Z,7.96
2018-11-25T08:42:09.798Z,7.95
2018-11-25T08:43:13.846Z,7.94
2018-11-25T08:44:17.881Z,7.96
2018-11-25T08:45:21.989Z,7.97
2018-11-25T08:46:26.302Z,7.97
2018-11-25T08:47:30.306Z,7.98
2018-11-25T08:48:34.380Z,7.98
2018-11-25T08:49:38.420Z,7.97
2018-11-25T08:50:42.438Z,7.96
2018-11-25T08:51:46.524Z,7.96
2018-11-25T08:52:52.548Z,7.95
2018-11-25T08:53:56.670Z,7.94
2018-11-25T08:55:00.688Z,7.92
2018-11-25T08:56:04.848Z,7.90
2018-11-25T08:57:08.847Z,7.90
2018-11-25T08:58:16.994Z,7.90
2018-11-25T08:59:21.038Z,7.92
2018-11-25T09:00:27.240Z,7.92
2018-11-25T09:01:29.917Z,7.92
2018-11-25T09:02:33.920Z,7.93
2018-11-25T09:03:38.020Z,7.95
2018-11-25T09:04:42.128Z,7.97
2018-11-25T09:05:46.139Z,7.99
2018-11-25T09:06:50.132Z,8.01
2018-11-25T09:07:54.245Z,8.00
2018-11-25T09:08:58.327Z,8.00
2018-11-25T09:10:02.348Z,7.99
2018-11-25T09:11:06.597Z,8.00
2018-11-25T09:12:10.579Z,8.03
2018-11-25T09:13:14.666Z,8.03
2018-11-25T09:14:18.841Z,8.05
2018-11-25T09:15:24.119Z,8.08
2018-11-25T09:16:28.360Z,8.11
2018-11-25T09:17:32.394Z,8.11
2018-11-25T09:18:36.452Z,8.11
2018-11-25T09:19:40.455Z,8.12
2018-11-25T09:20:44.445Z,8.13
2018-11-25T09:21:48.454Z,8.14
2018-11-25T09:22:52.912Z,8.15
2018-11-25T09:23:56.840Z,8.16
2018-11-25T09:25:00.867Z,8.18
2018-11-25T09:26:04.862Z,8.18
2018-11-25T09:27:08.898Z,8.18
2018-11-25T09:28:12.891Z,8.18
2018-11-25T09:29:16.961Z,8.19
2018-11-25T09:30:22.098Z,8.20
2018-11-25T09:31:26.098Z,8.20
2018-11-25T09:32:30.221Z,8.21
2018-11-25T09:33:34.219Z,8.22
2018-11-25T09:34:38.250Z,8.23
2018-11-25T09:35:42.231Z,8.25
2018-11-25T09:36:46.240Z,8.25
2018-11-25T09:37:50.254Z,8.28
2018-11-25T09:38:54.334Z,8.27
2018-11-25T09:39:58.329Z,8.27
2018-11-25T09:41:06.698Z,8.27
2018-11-25T09:42:10.721Z,8.25
2018-11-25T09:43:14.716Z,8.25
2018-11-25T09:44:18.802Z,8.25
2018-11-25T09:45:22.960Z,8.26
2018-11-25T09:46:27.054Z,8.24
2018-11-25T09:47:31.014Z,8.25
2018-11-25T09:48:35.050Z,8.27
2018-11-25T09:49:38.999Z,8.29
2018-11-25T09:50:43.030Z,8.31
2018-11-25T09:51:47.051Z,8.33
2018-11-25T09:52:51.252Z,8.36
2018-11-25T09:53:55.633Z,8.36
2018-11-25T09:54:59.833Z,8.38
2018-11-25T09:56:03.881Z,8.37
2018-11-25T09:57:08.056Z,8.36
2018-11-25T09:58:12.081Z,8.37
2018-11-25T09:59:16.087Z,8.38
2018-11-25T10:00:21.271Z,8.39
2018-11-25T10:01:25.511Z,8.39
2018-11-25T10:02:29.566Z,8.39
2018-11-25T10:03:33.583Z,8.41
2018-11-25T10:04:37.577Z,8.42
2018-11-25T10:05:42.232Z,8.41
2018-11-25T10:06:46.216Z,8.40
2018-11-25T10:07:50.448Z,8.40
2018-11-25T10:08:54.604Z,8.38
2018-11-25T10:09:58.613Z,8.39
2018-11-25T10:11:02.674Z,8.41
2018-11-25T10:12:06.887Z,8.42
2018-11-25T10:13:10.864Z,8.45
2018-11-25T10:14:14.835Z,8.49
2018-11-25T10:15:20.903Z,8.51
2018-11-25T10:16:24.950Z,8.50
2018-11-25T10:17:29.019Z,8.47
2018-11-25T10:18:33.118Z,8.47
2018-11-25T10:19:37.277Z,8.47
2018-11-25T10:20:41.270Z,8.46
2018-11-25T10:21:45.271Z,8.47
2018-11-25T10:22:49.244Z,8.48
2018-11-25T10:23:53.249Z,8.48
2018-11-25T10:24:57.279Z,8.47
2018-11-25T10:26:01.263Z,8.46
2018-11-25T10:27:05.360Z,8.46
2018-11-25T10:28:09.282Z,8.45
2018-11-25T10:29:13.671Z,8.45
2018-11-25T10:30:19.545Z,8.44
2018-11-25T10:31:23.569Z,8.45
2018-11-25T10:32:27.558Z,8.46
2018-11-25T10:33:31.518Z,8.44
2018-11-25T10:34:35.554Z,8.46
2018-11-25T10:35:39.569Z,8.43
2018-11-25T10:36:43.566Z,8.43
2018-11-25T10:37:47.558Z,8.44
2018-11-25T10:38:51.573Z,8.45
2018-11-25T10:39:55.528Z,8.46
2018-11-25T10:40:59.539Z,8.47
2018-11-25T10:42:03.575Z,8.50
2018-11-25T10:43:07.603Z,8.52
2018-11-25T10:44:11.666Z,8.50
2018-11-25T10:45:19.235Z,8.48
2018-11-25T10:46:23.287Z,8.46
2018-11-25T10:47:27.283Z,8.46
2018-11-25T10:48:31.253Z,8.46
2018-11-25T10:49:35.284Z,8.47
2018-11-25T10:50:39.250Z,8.45
2018-11-25T10:51:43.366Z,8.45
2018-11-25T10:52:47.587Z,8.46
2018-11-25T10:53:51.590Z,8.47
2018-11-25T10:54:55.736Z,8.49
2018-11-25T10:55:59.949Z,8.52
2018-11-25T10:57:04.075Z,8.53
2018-11-25T10:58:08.091Z,8.55
2018-11-25T10:59:12.107Z,8.54
2018-11-25T11:00:27.386Z,8.52
2018-11-25T11:01:45.787Z,8.50
2018-11-25T11:02:53.965Z,8.49
2018-11-25T11:03:58.401Z,8.48
2018-11-25T11:05:05.585Z,8.47
2018-11-25T11:06:15.004Z,8.47
2018-11-25T11:07:22.079Z,8.48
2018-11-25T11:08:26.326Z,8.48
2018-11-25T11:09:30.366Z,8.50
2018-11-25T11:10:34.440Z,8.50
2018-11-25T11:11:38.487Z,8.51
2018-11-25T11:12:42.614Z,8.50
2018-11-25T11:13:46.628Z,8.48
2018-11-25T11:14:50.709Z,8.44
2018-11-25T11:15:54.864Z,8.46
2018-11-25T11:16:58.881Z,8.45
2018-11-25T11:18:03.044Z,8.44
2018-11-25T11:19:07.087Z,8.44
2018-11-25T11:20:11.213Z,8.44
2018-11-25T11:21:15.304Z,8.44
2018-11-25T11:22:19.490Z,8.45
2018-11-25T11:23:23.502Z,8.48
2018-11-25T11:24:27.616Z,8.51
2018-11-25T11:25:31.647Z,8.54
2018-11-25T11:26:35.783Z,8.54
2018-11-25T11:27:39.827Z,8.53
2018-11-25T11:28:43.909Z,8.54
2018-11-25T11:29:47.939Z,8.54
2018-11-25T11:30:51.978Z,8.54
2018-11-25T11:31:56.066Z,8.52
2018-11-25T11:33:00.086Z,8.52
2018-11-25T11:34:04.178Z,8.50
2018-11-25T11:35:08.445Z,8.52
2018-11-25T11:36:12.472Z,8.52
2018-11-25T11:37:16.509Z,8.50
2018-11-25T11:38:20.802Z,8.50
2018-11-25T11:39:24.847Z,8.52
2018-11-25T11:40:28.858Z,8.51
2018-11-25T11:41:32.861Z,8.49
2018-11-25T11:42:36.928Z,8.49
2018-11-25T11:43:40.939Z,8.48
2018-11-25T11:44:45.041Z,8.48
2018-11-25T11:45:49.042Z,8.48
2018-11-25T11:46:53.069Z,8.47
2018-11-25T11:47:57.130Z,8.49
2018-11-25T11:49:01.332Z,8.50
2018-11-25T11:50:08.061Z,8.50
2018-11-25T11:51:12.142Z,8.51
2018-11-25T11:52:16.323Z,8.52
2018-11-25T11:53:20.564Z,8.51
2018-11-25T11:54:24.570Z,8.51
2018-11-25T11:55:28.837Z,8.54
2018-11-25T11:56:36.049Z,8.58
2018-11-25T11:57:37.022Z,8.60
2018-11-25T11:58:41.070Z,8.62
2018-11-25T11:59:45.050Z,8.63
2018-11-25T12:00:54.434Z,8.64
2018-11-25T12:01:58.386Z,8.66
2018-11-25T12:03:02.405Z,8.64
2018-11-25T12:04:06.406Z,8.63
2018-11-25T12:05:10.624Z,8.62
2018-11-25T12:06:14.582Z,8.61
2018-11-25T12:07:18.583Z,8.58
2018-11-25T12:08:22.576Z,8.57
2018-11-25T12:09:26.623Z,8.57
2018-11-25T12:10:30.635Z,8.55
2018-11-25T12:11:34.638Z,8.56
2018-11-25T12:12:38.773Z,8.56
2018-11-25T12:13:42.862Z,8.58
2018-11-25T12:14:50.187Z,8.58
2018-11-25T12:15:51.194Z,8.62
2018-11-25T12:16:55.324Z,8.62
2018-11-25T12:17:59.405Z,8.63
2018-11-25T12:19:03.382Z,8.63
2018-11-25T12:20:08.272Z,8.64
2018-11-25T12:21:12.291Z,8.62
2018-11-25T12:22:16.295Z,8.61
2018-11-25T12:23:20.273Z,8.59
2018-11-25T12:24:24.275Z,8.58
2018-11-25T12:25:28.305Z,8.59
2018-11-25T12:26:32.265Z,8.61
2018-11-25T12:27:36.268Z,8.62
2018-11-25T12:28:40.278Z,8.62
2018-11-25T12:29:44.302Z,8.61
2018-11-25T12:30:48.351Z,8.59
2018-11-25T12:31:52.373Z,8.58
2018-11-25T12:32:56.352Z,8.57
2018-11-25T12:34:00.337Z,8.54
2018-11-25T12:35:04.411Z,8.51
2018-11-25T12:36:08.381Z,8.49
2018-11-25T12:37:12.391Z,8.48
2018-11-25T12:38:16.413Z,8.49
2018-11-25T12:39:20.420Z,8.51
2018-11-25T12:40:24.384Z,8.50
2018-11-25T12:41:28.441Z,8.51
2018-11-25T12:42:32.396Z,8.50
2018-11-25T12:43:36.393Z,8.51
2018-11-25T12:44:40.387Z,8.52
2018-11-25T12:45:44.389Z,8.52
2018-11-25T12:46:48.371Z,8.50
2018-11-25T12:47:52.382Z,8.50
2018-11-25T12:48:56.510Z,8.50
2018-11-25T12:50:00.621Z,8.51
2018-11-25T12:51:04.698Z,8.49
2018-11-25T12:52:08.855Z,8.49
2018-11-25T12:53:12.826Z,8.50
2018-11-25T12:54:16.789Z,8.49
2018-11-25T12:55:22.079Z,8.47
2018-11-25T12:56:26.217Z,8.46
2018-11-25T12:57:30.189Z,8.45
2018-11-25T12:58:34.339Z,8.46
2018-11-25T12:59:38.336Z,8.45
2018-11-25T13:00:43.509Z,8.45
2018-11-25T13:01:47.549Z,8.47
2018-11-25T13:02:51.550Z,8.47
2018-11-25T13:03:55.570Z,8.47
2018-11-25T13:04:59.634Z,8.46
2018-11-25T13:06:03.634Z,8.46
2018-11-25T13:07:07.600Z,8.45
2018-11-25T13:08:12.808Z,8.45
2018-11-25T13:09:16.787Z,8.45
2018-11-25T13:10:20.765Z,8.46
2018-11-25T13:11:24.741Z,8.48
2018-11-25T13:12:28.799Z,8.49
2018-11-25T13:13:32.829Z,8.50
2018-11-25T13:14:36.835Z,8.51
2018-11-25T13:15:40.898Z,8.51
2018-11-25T13:16:45.337Z,8.51
2018-11-25T13:17:49.322Z,8.51
2018-11-25T13:18:53.534Z,8.49
2018-11-25T13:19:57.542Z,8.46
2018-11-25T13:21:01.610Z,8.45
2018-11-25T13:22:05.829Z,8.46
2018-11-25T13:23:09.925Z,8.48
2018-11-25T13:24:13.988Z,8.49
2018-11-25T13:25:18.240Z,8.48
2018-11-25T13:26:22.264Z,8.46
2018-11-25T13:27:26.294Z,8.47
2018-11-25T13:28:30.414Z,8.47
2018-11-25T13:29:34.563Z,8.48
2018-11-25T13:30:38.678Z,8.47
2018-11-25T13:31:42.670Z,8.49
2018-11-25T13:32:47.138Z,8.47
2018-11-25T13:33:51.171Z,8.48
2018-11-25T13:34:55.230Z,8.47
2018-11-25T13:35:59.324Z,8.47
2018-11-25T13:37:03.351Z,8.46
2018-11-25T13:38:08.093Z,8.47
2018-11-25T13:39:12.078Z,8.46
2018-11-25T13:40:16.729Z,8.43
2018-11-25T13:41:20.929Z,8.41
2018-11-25T13:42:25.012Z,8.42
2018-11-25T13:43:29.036Z,8.43
2018-11-25T13:44:45.515Z,8.44
2018-11-25T13:45:49.531Z,8.45
2018-11-25T13:46:53.613Z,8.45
2018-11-25T13:47:57.626Z,8.45
2018-11-25T13:49:01.650Z,8.45
2018-11-25T13:50:06.726Z,8.47
2018-11-25T13:51:10.757Z,8.49
2018-11-25T13:52:14.790Z,8.48
2018-11-25T13:53:18.806Z,8.46
2018-11-25T13:54:23.145Z,8.47
2018-11-25T13:55:28.270Z,8.48
2018-11-25T13:56:32.558Z,8.47
2018-11-25T13:57:36.714Z,8.48
2018-11-25T13:58:40.793Z,8.47
2018-11-25T13:59:44.951Z,8.46
2018-11-25T14:00:51.201Z,8.45
2018-11-25T14:01:55.252Z,8.43
2018-11-25T14:02:59.322Z,8.41
2018-11-25T14:04:03.444Z,8.39
2018-11-25T14:05:08.237Z,8.36
2018-11-25T14:06:14.492Z,8.33
2018-11-25T14:07:18.639Z,8.33
2018-11-25T14:08:22.635Z,8.33
2018-11-25T14:09:27.818Z,8.32
2018-11-25T14:10:33.337Z,8.31
2018-11-25T14:11:37.449Z,8.30
2018-11-25T14:12:41.555Z,8.29
2018-11-25T14:13:45.652Z,8.27
2018-11-25T14:14:49.738Z,8.27
2018-11-25T14:15:53.846Z,8.27
2018-11-25T14:16:58.107Z,8.29